Time;durP1;ratioP1;P1;durP2;ratioP2;P2;SDS_P1;SDS_P2;PMS_P1;PMS_P2;Temp;Humidity;BMP_temperature;BMP_pressure;BME280_temperature;BME280_humidity;BME280_pressure;Samples;Min_cycle;Max_cycle;Signal;HPM_P1;HPM_P2
2022/01/02 00:00:37;;;;;;;12.65;5.18;;;;;;;;;;5125897;27;20052;-65
2022/01/02 00:03:04;;;;;;;12.52;5.53;;;;;;;;;;5130584;27;20059;-65
2022/01/02 00:05:34;;;;;;;12.02;5.55;;;;;;;;;;5131236;27;20144;-65
2022/01/02 00:08:05;;;;;;;10.02;5.22;;;;;;;;;;5128143;27;20489;-65
2022/01/02 00:10:32;;;;;;;11.73;5.07;;;;;;;;;;5130717;27;20175;-65
2022/01/02 00:13:00;;;;;;;13.45;5.25;;;;;;;;;;5129758;27;20139;-64
2022/01/02 00:15:27;;;;;;;12.07;5.43;;;;;;;;;;5130047;27;20465;-65
2022/01/02 00:17:55;;;;;;;13.77;5.35;;;;;;;;;;5110390;27;20048;-65
2022/01/02 00:20:31;;;;;;;16.35;5.22;;;;;;;;;;5112968;27;20052;-65
2022/01/02 00:22:59;;;;;;;11.57;5.60;;;;;;;;;;5127907;27;20051;-65
2022/01/02 00:25:28;;;;;;;12.73;5.60;;;;;;;;;;5127860;27;20494;-65
2022/01/02 00:27:55;;;;;;;12.02;6.00;;;;;;;;;;5124218;27;20047;-65
2022/01/02 00:30:21;;;;;;;12.63;5.75;;;;;;;;;;5123616;27;20047;-65
2022/01/02 00:32:47;;;;;;;13.70;5.93;;;;;;;;;;5117470;27;20139;-65
2022/01/02 00:35:14;;;;;;;16.13;5.60;;;;;;;;;;5114551;27;20050;-65
2022/01/02 00:37:41;;;;;;;12.85;5.60;;;;;;;;;;5120782;27;20044;-66
2022/01/02 00:40:07;;;;;;;15.18;5.85;;;;;;;;;;5119499;27;20063;-66
2022/01/02 00:42:33;;;;;;;12.48;5.80;;;;;;;;;;5108206;27;20056;-65
2022/01/02 00:45:02;;;;;;;12.57;6.25;;;;;;;;;;5115832;27;20507;-66
2022/01/02 00:47:43;;;;;;;14.95;5.90;;;;;;;;;;5128622;27;20052;-66
2022/01/02 00:50:14;;;;;;;14.00;5.65;;;;;;;;;;5128088;27;20051;-66
2022/01/02 00:52:46;;;;;;;12.25;5.63;;;;;;;;;;5128847;27;20098;-66
2022/01/02 00:55:13;;;;;;;14.50;6.20;;;;;;;;;;5128521;27;20857;-66
2022/01/02 00:57:41;;;;;;;15.30;6.13;;;;;;;;;;5128914;27;20051;-66
2022/01/02 01:00:08;;;;;;;13.27;5.85;;;;;;;;;;5129146;27;20539;-66
2022/01/02 01:02:38;;;;;;;17.08;5.70;;;;;;;;;;5128968;27;20508;-66
2022/01/02 01:05:05;;;;;;;14.70;5.80;;;;;;;;;;5129193;27;20583;-66
2022/01/02 01:07:33;;;;;;;18.05;5.97;;;;;;;;;;5129343;27;20051;-66
2022/01/02 01:09:59;;;;;;;17.00;6.18;;;;;;;;;;5129591;27;20058;-66
2022/01/02 01:12:26;;;;;;;17.30;6.15;;;;;;;;;;5129161;27;20577;-65
2022/01/02 01:14:52;;;;;;;13.40;5.80;;;;;;;;;;5127329;27;20051;-66
2022/01/02 01:17:19;;;;;;;16.98;6.07;;;;;;;;;;5128718;27;20061;-66
2022/01/02 01:19:46;;;;;;;16.05;5.70;;;;;;;;;;5129180;27;20144;-66
2022/01/02 01:22:12;;;;;;;21.73;6.70;;;;;;;;;;5128900;27;20062;-66
2022/01/02 01:24:38;;;;;;;16.63;5.70;;;;;;;;;;5129209;27;20129;-66
2022/01/02 01:27:07;;;;;;;12.75;5.70;;;;;;;;;;5131879;27;20505;-66
2022/01/02 01:29:34;;;;;;;12.45;5.63;;;;;;;;;;5131994;27;20079;-65
2022/01/02 01:32:01;;;;;;;15.77;5.57;;;;;;;;;;5131933;27;20055;-66
2022/01/02 01:34:28;;;;;;;13.80;5.72;;;;;;;;;;5131973;27;20058;-65
2022/01/02 01:36:54;;;;;;;17.77;5.55;;;;;;;;;;5132202;27;20089;-66
2022/01/02 01:39:21;;;;;;;17.08;5.65;;;;;;;;;;5131529;27;20143;-66
2022/01/02 01:41:48;;;;;;;19.00;5.53;;;;;;;;;;5132825;27;20054;-66
2022/01/02 01:46:41;;;;;;;15.70;6.00;;;;;;;;;;5132654;27;20071;-66
2022/01/02 01:49:40;;;;;;;12.90;5.50;;;;;;;;;;5131295;27;20060;-66
2022/01/02 01:52:06;;;;;;;14.63;5.82;;;;;;;;;;5085566;27;20059;-66
2022/01/02 01:54:32;;;;;;;15.30;5.95;;;;;;;;;;5130683;27;20056;-66
2022/01/02 01:57:01;;;;;;;15.55;5.65;;;;;;;;;;5131585;27;20099;-65
2022/01/02 01:59:28;;;;;;;15.55;5.85;;;;;;;;;;5131158;27;20052;-66
2022/01/02 02:01:54;;;;;;;12.20;5.10;;;;;;;;;;5132353;27;20059;-66
2022/01/02 02:04:21;;;;;;;18.05;5.63;;;;;;;;;;5132026;27;20075;-66
2022/01/02 02:06:47;;;;;;;16.45;5.57;;;;;;;;;;5132045;27;20044;-65
2022/01/02 02:09:14;;;;;;;14.20;5.32;;;;;;;;;;5131367;27;20186;-66
2022/01/02 02:11:40;;;;;;;13.57;5.10;;;;;;;;;;5131960;27;20052;-66
2022/01/02 02:14:07;;;;;;;13.82;5.47;;;;;;;;;;5131266;27;20849;-65
2022/01/02 02:16:34;;;;;;;11.98;5.13;;;;;;;;;;5131435;27;20052;-66
2022/01/02 02:19:01;;;;;;;14.60;4.95;;;;;;;;;;5131627;27;20938;-65
2022/01/02 02:21:29;;;;;;;15.27;5.45;;;;;;;;;;5131263;27;20498;-65
2022/01/02 02:23:55;;;;;;;11.88;4.95;;;;;;;;;;5130968;27;20055;-65
2022/01/02 02:26:21;;;;;;;15.93;4.93;;;;;;;;;;5131775;27;20058;-66
2022/01/02 02:28:48;;;;;;;13.60;4.95;;;;;;;;;;5130461;27;20059;-66
2022/01/02 02:31:14;;;;;;;14.13;5.35;;;;;;;;;;5130932;27;20619;-65
2022/01/02 02:33:40;;;;;;;15.35;5.18;;;;;;;;;;5131974;27;20052;-66
2022/01/02 02:36:08;;;;;;;14.52;4.65;;;;;;;;;;5131511;27;20059;-66
2022/01/02 02:38:37;;;;;;;13.77;4.80;;;;;;;;;;5130840;27;20083;-65
2022/01/02 02:41:04;;;;;;;20.08;5.03;;;;;;;;;;5131059;27;20048;-65
2022/01/02 02:43:47;;;;;;;17.67;4.60;;;;;;;;;;5131313;27;20060;-66
2022/01/02 02:49:03;;;;;;;22.10;5.85;;;;;;;;;;5131235;27;20482;-65
2022/01/02 02:51:38;;;;;;;16.13;4.15;;;;;;;;;;5130609;27;20071;-65
2022/01/02 02:54:06;;;;;;;16.92;5.60;;;;;;;;;;5130179;27;20418;-65
2022/01/02 02:56:44;;;;;;;15.00;3.63;;;;;;;;;;5130284;27;20059;-66
2022/01/02 02:59:11;;;;;;;11.90;4.22;;;;;;;;;;5130836;27;20142;-66
2022/01/02 03:01:38;;;;;;;13.90;4.35;;;;;;;;;;5130895;27;20056;-65
2022/01/02 03:04:05;;;;;;;21.85;4.65;;;;;;;;;;5131048;27;20051;-66
2022/01/02 03:06:31;;;;;;;13.02;3.90;;;;;;;;;;5130850;27;20046;-65
2022/01/02 03:09:05;;;;;;;19.80;4.47;;;;;;;;;;5131126;27;20058;-66
2022/01/02 03:11:33;;;;;;;17.88;3.97;;;;;;;;;;5131309;27;20059;-65
2022/01/02 03:13:59;;;;;;;15.27;3.72;;;;;;;;;;5131347;27;20051;-65
2022/01/02 03:16:25;;;;;;;15.25;3.58;;;;;;;;;;5130043;27;20619;-66
2022/01/02 03:18:52;;;;;;;14.93;4.05;;;;;;;;;;5130379;27;20044;-66
2022/01/02 03:21:18;;;;;;;14.52;3.35;;;;;;;;;;5130046;27;20066;-66
2022/01/02 03:23:44;;;;;;;14.75;3.67;;;;;;;;;;5130339;27;20058;-65
2022/01/02 03:26:11;;;;;;;10.10;3.28;;;;;;;;;;5130285;27;20048;-65
2022/01/02 03:28:37;;;;;;;11.18;3.30;;;;;;;;;;5130580;27;20083;-66
2022/01/02 03:31:04;;;;;;;15.82;3.30;;;;;;;;;;5130061;27;20056;-65
2022/01/02 03:33:30;;;;;;;12.63;3.13;;;;;;;;;;5130591;27;20050;-66
2022/01/02 03:35:57;;;;;;;12.75;3.10;;;;;;;;;;5129947;27;20051;-66
2022/01/02 03:38:23;;;;;;;14.88;3.38;;;;;;;;;;5130214;27;20055;-65
2022/01/02 03:40:49;;;;;;;15.38;3.28;;;;;;;;;;5130471;27;20176;-65
2022/01/02 03:43:16;;;;;;;15.75;4.00;;;;;;;;;;5129160;27;20604;-66
2022/01/02 03:45:42;;;;;;;14.77;3.85;;;;;;;;;;5130614;27;20501;-66
2022/01/02 03:48:09;;;;;;;16.85;4.20;;;;;;;;;;5128776;27;20140;-65
2022/01/02 03:50:35;;;;;;;16.77;4.45;;;;;;;;;;5129831;27;20062;-65
2022/01/02 03:53:02;;;;;;;13.85;3.42;;;;;;;;;;5130022;27;20059;-66
2022/01/02 03:55:28;;;;;;;17.73;3.67;;;;;;;;;;5129798;27;20085;-65
2022/01/02 03:57:54;;;;;;;14.70;4.30;;;;;;;;;;5130040;27;20102;-66
2022/01/02 04:00:21;;;;;;;15.38;3.70;;;;;;;;;;5130073;27;20042;-65
2022/01/02 04:02:47;;;;;;;15.65;3.70;;;;;;;;;;5129995;27;20063;-65
2022/01/02 04:05:15;;;;;;;14.43;3.67;;;;;;;;;;5129608;27;20051;-65
2022/01/02 04:07:42;;;;;;;13.63;4.00;;;;;;;;;;5129383;27;20055;-66
2022/01/02 04:10:10;;;;;;;14.25;4.32;;;;;;;;;;5129473;27;20055;-65
2022/01/02 04:12:36;;;;;;;19.63;3.85;;;;;;;;;;5130106;27;20443;-65
2022/01/02 04:15:04;;;;;;;19.00;5.43;;;;;;;;;;5129522;27;20512;-65
2022/01/02 04:17:32;;;;;;;17.48;4.10;;;;;;;;;;5129723;27;20083;-65
2022/01/02 04:20:03;;;;;;;15.52;3.40;;;;;;;;;;5128756;27;20102;-66
2022/01/02 04:22:30;;;;;;;12.32;3.55;;;;;;;;;;5129614;27;20059;-66
2022/01/02 04:24:56;;;;;;;17.33;3.13;;;;;;;;;;5129583;27;20051;-66
2022/01/02 04:27:23;;;;;;;9.90;3.05;;;;;;;;;;5128906;27;20052;-66
2022/01/02 04:29:50;;;;;;;24.90;3.95;;;;;;;;;;5130104;27;20052;-66
2022/01/02 04:32:17;;;;;;;11.63;3.25;;;;;;;;;;5128433;27;20047;-66
2022/01/02 04:34:43;;;;;;;12.85;3.70;;;;;;;;;;5129721;27;20050;-65
2022/01/02 04:37:10;;;;;;;14.82;3.20;;;;;;;;;;5129490;27;20058;-66
2022/01/02 04:39:37;;;;;;;11.80;3.33;;;;;;;;;;5129274;27;20051;-67
2022/01/02 04:42:04;;;;;;;11.00;3.22;;;;;;;;;;5128537;27;20051;-67
2022/01/02 04:44:31;;;;;;;12.40;3.58;;;;;;;;;;5129283;27;20516;-67
2022/01/02 04:46:57;;;;;;;11.70;3.05;;;;;;;;;;5128719;27;20523;-66
2022/01/02 04:49:23;;;;;;;12.13;3.65;;;;;;;;;;5128268;27;20055;-66
2022/01/02 04:51:52;;;;;;;15.50;3.70;;;;;;;;;;5129214;27;20059;-67
2022/01/02 04:54:18;;;;;;;14.60;3.60;;;;;;;;;;5129382;27;20139;-66
2022/01/02 04:56:45;;;;;;;18.80;3.50;;;;;;;;;;5128164;27;20066;-66
2022/01/02 04:59:11;;;;;;;13.68;3.30;;;;;;;;;;5128837;27;20134;-66
2022/01/02 05:01:37;;;;;;;13.73;3.42;;;;;;;;;;5128625;27;20440;-66
2022/01/02 05:04:04;;;;;;;17.77;3.70;;;;;;;;;;5128166;27;20052;-66
2022/01/02 05:06:30;;;;;;;12.77;3.53;;;;;;;;;;5129710;27;20047;-66
2022/01/02 05:08:57;;;;;;;14.50;3.63;;;;;;;;;;5129270;27;20135;-66
2022/01/02 05:11:23;;;;;;;13.57;2.88;;;;;;;;;;5128582;27;20050;-66
2022/01/02 05:13:49;;;;;;;13.43;3.67;;;;;;;;;;5128723;27;20054;-66
2022/01/02 05:16:16;;;;;;;15.32;3.40;;;;;;;;;;5127948;27;20456;-66
2022/01/02 05:18:42;;;;;;;10.80;3.97;;;;;;;;;;5129362;27;20108;-66
2022/01/02 05:21:09;;;;;;;11.98;4.47;;;;;;;;;;5128122;27;20052;-66
2022/01/02 05:23:35;;;;;;;13.75;3.53;;;;;;;;;;5128800;27;20048;-66
2022/01/02 05:26:01;;;;;;;11.23;4.03;;;;;;;;;;5128247;27;20052;-66
2022/01/02 05:28:28;;;;;;;10.95;3.70;;;;;;;;;;5128343;27;20065;-67
2022/01/02 05:30:54;;;;;;;15.60;4.15;;;;;;;;;;5127840;27;20502;-66
2022/01/02 05:33:20;;;;;;;10.60;3.38;;;;;;;;;;5128727;27;20052;-66
2022/01/02 05:35:47;;;;;;;12.27;3.65;;;;;;;;;;5128388;27;20060;-66
2022/01/02 05:38:15;;;;;;;13.05;3.92;;;;;;;;;;5128163;27;20525;-66
2022/01/02 05:40:42;;;;;;;13.43;3.90;;;;;;;;;;5128471;27;20101;-66
2022/01/02 05:43:08;;;;;;;10.68;3.33;;;;;;;;;;5127900;27;20123;-66
2022/01/02 05:45:35;;;;;;;12.95;3.47;;;;;;;;;;5127653;27;20185;-66
2022/01/02 05:48:01;;;;;;;11.27;3.72;;;;;;;;;;5127886;27;20060;-66
2022/01/02 05:50:28;;;;;;;13.48;3.72;;;;;;;;;;5128660;27;20052;-66
2022/01/02 05:52:54;;;;;;;10.80;4.22;;;;;;;;;;5128314;27;20044;-66
2022/01/02 05:55:20;;;;;;;11.32;3.85;;;;;;;;;;5128679;27;20546;-66
2022/01/02 05:57:46;;;;;;;18.25;4.18;;;;;;;;;;5128077;27;20051;-66
2022/01/02 06:00:13;;;;;;;16.15;4.30;;;;;;;;;;5127787;27;20476;-67
2022/01/02 06:02:39;;;;;;;11.07;3.65;;;;;;;;;;5127434;27;20094;-66
2022/01/02 06:05:06;;;;;;;14.75;4.10;;;;;;;;;;5128492;27;20164;-66
2022/01/02 06:07:33;;;;;;;13.20;3.72;;;;;;;;;;5127974;27;20145;-66
2022/01/02 06:10:00;;;;;;;11.63;4.13;;;;;;;;;;5128052;27;20055;-66
2022/01/02 06:12:27;;;;;;;11.07;2.92;;;;;;;;;;5131478;27;20052;-65
2022/01/02 06:14:53;;;;;;;14.68;4.10;;;;;;;;;;5131266;27;20086;-67
2022/01/02 06:17:19;;;;;;;9.35;3.65;;;;;;;;;;5131655;27;20524;-66
2022/01/02 06:19:46;;;;;;;10.13;3.45;;;;;;;;;;5131702;27;20635;-66
2022/01/02 06:22:12;;;;;;;10.68;3.25;;;;;;;;;;5131772;27;20122;-66
2022/01/02 06:24:38;;;;;;;10.25;3.53;;;;;;;;;;5132142;27;20082;-66
2022/01/02 06:27:05;;;;;;;14.15;3.83;;;;;;;;;;5131190;27;20052;-66
2022/01/02 06:29:31;;;;;;;12.85;3.60;;;;;;;;;;5131397;27;20130;-66
2022/01/02 06:31:58;;;;;;;11.77;3.20;;;;;;;;;;5131185;27;20051;-67
2022/01/02 06:34:24;;;;;;;11.77;3.45;;;;;;;;;;5130723;27;20057;-66
2022/01/02 06:36:50;;;;;;;8.45;3.00;;;;;;;;;;5131415;27;20052;-66
2022/01/02 06:39:17;;;;;;;12.88;3.28;;;;;;;;;;5130797;27;20056;-66
2022/01/02 06:41:43;;;;;;;10.30;3.00;;;;;;;;;;5131470;27;20055;-66
2022/01/02 06:44:09;;;;;;;13.70;3.67;;;;;;;;;;5131123;27;20109;-66
2022/01/02 06:46:36;;;;;;;9.25;3.78;;;;;;;;;;5131263;27;20054;-66
2022/01/02 06:49:02;;;;;;;11.43;3.65;;;;;;;;;;5130598;27;20048;-66
2022/01/02 06:51:46;;;;;;;8.70;3.20;;;;;;;;;;5131364;27;20058;-66
2022/01/02 06:54:12;;;;;;;11.73;3.28;;;;;;;;;;5130701;27;20055;-66
2022/01/02 06:56:38;;;;;;;8.98;3.13;;;;;;;;;;5131117;27;20126;-67
2022/01/02 06:59:05;;;;;;;8.77;3.30;;;;;;;;;;5130425;27;20055;-66
2022/01/02 07:01:31;;;;;;;10.52;3.90;;;;;;;;;;5130641;27;20057;-66
2022/01/02 07:03:57;;;;;;;10.35;3.13;;;;;;;;;;5130271;27;20051;-66
2022/01/02 07:06:24;;;;;;;8.68;3.03;;;;;;;;;;5131265;27;20138;-66
2022/01/02 07:08:50;;;;;;;10.63;3.10;;;;;;;;;;5131357;27;20051;-66
2022/01/02 07:11:18;;;;;;;10.95;3.20;;;;;;;;;;5130629;27;20039;-67
2022/01/02 07:13:44;;;;;;;10.82;3.47;;;;;;;;;;5129871;27;20171;-67
2022/01/02 07:16:10;;;;;;;8.25;2.63;;;;;;;;;;5130478;27;20055;-66
2022/01/02 07:18:37;;;;;;;13.40;3.50;;;;;;;;;;5130739;27;20051;-66
2022/01/02 07:21:03;;;;;;;9.38;2.72;;;;;;;;;;5130280;27;20528;-66
2022/01/02 07:23:29;;;;;;;8.93;2.70;;;;;;;;;;5128407;27;20058;-66
2022/01/02 07:25:55;;;;;;;7.93;2.50;;;;;;;;;;5130397;27;20079;-66
2022/01/02 07:28:22;;;;;;;8.55;2.50;;;;;;;;;;5131040;27;20882;-66
2022/01/02 07:30:48;;;;;;;10.07;2.90;;;;;;;;;;5130157;27;20044;-66
2022/01/02 07:33:14;;;;;;;8.65;2.60;;;;;;;;;;5130417;27;20885;-66
2022/01/02 07:35:41;;;;;;;11.73;2.78;;;;;;;;;;5130567;27;20094;-67
2022/01/02 07:38:27;;;;;;;9.05;2.55;;;;;;;;;;5130151;27;20056;-66
2022/01/02 07:40:53;;;;;;;10.18;2.80;;;;;;;;;;5130285;27;20917;-67
2022/01/02 07:43:20;;;;;;;9.57;2.90;;;;;;;;;;5130197;27;20087;-66
2022/01/02 07:45:46;;;;;;;8.45;2.92;;;;;;;;;;5130052;27;20043;-67
2022/01/02 07:48:13;;;;;;;8.38;2.72;;;;;;;;;;5129496;27;20474;-66
2022/01/02 07:50:39;;;;;;;10.95;3.75;;;;;;;;;;5130208;27;20138;-66
2022/01/02 07:53:05;;;;;;;14.07;3.30;;;;;;;;;;5129385;27;20139;-66
2022/01/02 07:55:32;;;;;;;8.65;3.10;;;;;;;;;;5127985;27;20051;-66
2022/01/02 07:57:58;;;;;;;9.70;3.17;;;;;;;;;;5129221;27;20047;-66
2022/01/02 08:00:25;;;;;;;11.63;3.47;;;;;;;;;;5130223;27;20059;-67
2022/01/02 08:02:51;;;;;;;11.60;2.75;;;;;;;;;;5130567;27;20523;-65
2022/01/02 08:05:18;;;;;;;11.32;2.83;;;;;;;;;;5129220;27;20585;-64
2022/01/02 08:07:44;;;;;;;9.77;2.95;;;;;;;;;;5129092;27;20987;-66
2022/01/02 08:10:10;;;;;;;12.02;3.00;;;;;;;;;;5116679;27;20058;-65
2022/01/02 08:12:37;;;;;;;9.15;3.03;;;;;;;;;;5109374;27;20060;-65
2022/01/02 08:15:03;;;;;;;10.82;3.15;;;;;;;;;;5109457;28;20051;-64
2022/01/02 08:17:30;;;;;;;10.95;2.72;;;;;;;;;;5116127;27;20051;-64
2022/01/02 08:19:56;;;;;;;9.13;2.80;;;;;;;;;;5124325;27;20056;-65
2022/01/02 08:22:23;;;;;;;7.68;2.67;;;;;;;;;;5116950;27;20056;-65
2022/01/02 08:24:49;;;;;;;11.65;3.15;;;;;;;;;;5129235;27;20165;-64
2022/01/02 08:27:15;;;;;;;9.10;3.05;;;;;;;;;;5129658;27;20464;-64
2022/01/02 08:29:41;;;;;;;7.28;2.80;;;;;;;;;;5115601;27;20418;-64
2022/01/02 08:32:08;;;;;;;10.75;3.40;;;;;;;;;;5124522;27;20051;-64
2022/01/02 08:34:34;;;;;;;6.38;2.83;;;;;;;;;;5121147;27;20051;-65
2022/01/02 08:37:00;;;;;;;11.75;3.28;;;;;;;;;;5129387;27;20511;-64
2022/01/02 08:39:27;;;;;;;11.02;3.20;;;;;;;;;;5130073;27;20051;-64
2022/01/02 08:41:53;;;;;;;12.77;3.20;;;;;;;;;;5117531;27;20432;-67
2022/01/02 08:44:20;;;;;;;8.52;2.72;;;;;;;;;;5125401;27;20517;-67
2022/01/02 08:46:47;;;;;;;9.82;3.03;;;;;;;;;;5129493;27;20060;-67
2022/01/02 08:49:13;;;;;;;11.82;2.92;;;;;;;;;;5128062;27;20054;-67
2022/01/02 08:51:40;;;;;;;14.73;3.70;;;;;;;;;;5128295;27;20047;-67
2022/01/02 08:54:06;;;;;;;9.52;2.97;;;;;;;;;;5128308;27;20055;-67
2022/01/02 08:56:32;;;;;;;13.70;2.97;;;;;;;;;;5123040;27;20062;-66
2022/01/02 08:58:59;;;;;;;9.48;3.08;;;;;;;;;;5112487;27;20088;-66
2022/01/02 09:01:25;;;;;;;8.63;3.20;;;;;;;;;;5128823;27;20054;-66
2022/01/02 09:03:51;;;;;;;8.93;3.22;;;;;;;;;;5121306;27;20591;-66
2022/01/02 09:06:18;;;;;;;12.25;3.25;;;;;;;;;;5124842;27;20220;-66
2022/01/02 09:08:44;;;;;;;8.13;3.40;;;;;;;;;;5129196;27;20047;-66
2022/01/02 09:11:10;;;;;;;12.95;3.67;;;;;;;;;;5125561;27;20048;-67
2022/01/02 09:13:37;;;;;;;8.27;2.97;;;;;;;;;;5108469;28;20054;-66
2022/01/02 09:16:03;;;;;;;8.80;3.42;;;;;;;;;;5124174;27;20058;-66
2022/01/02 09:18:29;;;;;;;11.02;4.32;;;;;;;;;;5126564;27;20063;-66
2022/01/02 09:20:56;;;;;;;7.50;3.55;;;;;;;;;;5122631;27;20040;-66
2022/01/02 09:23:22;;;;;;;8.77;3.40;;;;;;;;;;5123941;27;20105;-66
2022/01/02 09:25:48;;;;;;;10.50;3.63;;;;;;;;;;5115938;27;20524;-65
2022/01/02 09:28:15;;;;;;;11.00;3.53;;;;;;;;;;5127361;27;20058;-68
2022/01/02 09:30:41;;;;;;;6.60;3.17;;;;;;;;;;5120763;27;20062;-68
2022/01/02 09:33:08;;;;;;;10.77;3.70;;;;;;;;;;5128330;27;20059;-66
2022/01/02 09:35:40;;;;;;;13.10;3.92;;;;;;;;;;5124253;27;20061;-66
2022/01/02 09:38:08;;;;;;;8.32;3.45;;;;;;;;;;5107829;28;20151;-67
2022/01/02 09:40:34;;;;;;;10.82;3.53;;;;;;;;;;5115044;27;20167;-67
2022/01/02 09:43:02;;;;;;;10.63;3.45;;;;;;;;;;5112489;27;20060;-67
2022/01/02 09:45:28;;;;;;;10.23;4.07;;;;;;;;;;5127454;27;20060;-67
2022/01/02 09:47:55;;;;;;;13.15;4.03;;;;;;;;;;5131388;27;20297;-67
2022/01/02 09:50:21;;;;;;;9.20;3.53;;;;;;;;;;5124849;27;20059;-67
2022/01/02 09:52:49;;;;;;;13.23;3.78;;;;;;;;;;5118385;27;20062;-67
2022/01/02 09:55:15;;;;;;;11.10;4.15;;;;;;;;;;5131984;27;20536;-67
2022/01/02 09:57:42;;;;;;;10.13;4.03;;;;;;;;;;5132480;27;20062;-68
2022/01/02 10:00:09;;;;;;;9.30;3.88;;;;;;;;;;5125796;27;20058;-67
2022/01/02 10:03:05;;;;;;;11.95;4.07;;;;;;;;;;5128481;27;20047;-65
2022/01/02 10:05:52;;;;;;;9.45;3.70;;;;;;;;;;5105477;27;20058;-69
2022/01/02 10:08:31;;;;;;;12.32;3.97;;;;;;;;;;5122778;27;20056;-65
2022/01/02 10:11:01;;;;;;;9.65;3.90;;;;;;;;;;5122733;27;20079;-69
2022/01/02 10:13:47;;;;;;;12.55;4.10;;;;;;;;;;5122726;27;20094;-68
2022/01/02 10:16:22;;;;;;;10.70;3.75;;;;;;;;;;5120939;27;20051;-70
2022/01/02 10:18:49;;;;;;;11.82;4.50;;;;;;;;;;5129515;27;20109;-69
2022/01/02 10:21:26;;;;;;;11.95;3.83;;;;;;;;;;5131523;27;20064;-68
2022/01/02 10:24:11;;;;;;;14.15;3.83;;;;;;;;;;5132180;27;20062;-69
2022/01/02 10:26:38;;;;;;;8.98;3.90;;;;;;;;;;5132075;27;20052;-66
2022/01/02 10:29:13;;;;;;;12.43;3.63;;;;;;;;;;5131696;27;20055;-68
2022/01/02 10:31:40;;;;;;;8.15;3.30;;;;;;;;;;5131543;27;20054;-65
2022/01/02 10:34:07;;;;;;;13.30;4.18;;;;;;;;;;5131462;27;20142;-68
2022/01/02 10:36:40;;;;;;;8.80;3.33;;;;;;;;;;5128966;27;20144;-66
2022/01/02 10:39:08;;;;;;;11.80;4.50;;;;;;;;;;5130055;27;20687;-67
2022/01/02 10:41:39;;;;;;;11.05;3.60;;;;;;;;;;5126058;27;20047;-67
2022/01/02 10:44:18;;;;;;;11.02;4.05;;;;;;;;;;5123573;27;20447;-66
2022/01/02 10:47:03;;;;;;;11.00;4.28;;;;;;;;;;5114849;27;20864;-68
2022/01/02 10:49:48;;;;;;;12.65;3.97;;;;;;;;;;5126398;27;20059;-68
2022/01/02 10:52:25;;;;;;;9.18;3.72;;;;;;;;;;5123485;27;20052;-68
2022/01/02 10:54:51;;;;;;;12.75;4.28;;;;;;;;;;5128177;27;20143;-66
2022/01/02 10:57:18;;;;;;;14.32;4.30;;;;;;;;;;5111312;27;20044;-68
2022/01/02 10:59:45;;;;;;;9.95;4.20;;;;;;;;;;5125217;27;20063;-67
2022/01/02 11:02:12;;;;;;;11.10;3.70;;;;;;;;;;5123406;27;20146;-66
2022/01/02 11:04:55;;;;;;;12.77;4.20;;;;;;;;;;5124036;27;20040;-68
2022/01/02 11:07:22;;;;;;;11.43;4.22;;;;;;;;;;5110361;28;20044;-67
2022/01/02 11:09:54;;;;;;;10.37;4.10;;;;;;;;;;5113966;27;20094;-69
2022/01/02 11:12:25;;;;;;;12.63;4.32;;;;;;;;;;5130993;27;20056;-67
2022/01/02 11:14:52;;;;;;;12.50;3.85;;;;;;;;;;5128950;27;20098;-67
2022/01/02 11:17:18;;;;;;;14.13;4.05;;;;;;;;;;5131460;27;20052;-68
2022/01/02 11:19:45;;;;;;;13.15;4.28;;;;;;;;;;5117295;27;20525;-68
2022/01/02 11:22:21;;;;;;;17.50;4.93;;;;;;;;;;5122858;27;20499;-69
2022/01/02 11:24:52;;;;;;;15.75;4.15;;;;;;;;;;5123688;27;20562;-68
2022/01/02 11:27:23;;;;;;;14.35;4.35;;;;;;;;;;5119541;27;20051;-67
2022/01/02 11:29:50;;;;;;;17.98;4.63;;;;;;;;;;5123735;27;20055;-67
2022/01/02 11:32:20;;;;;;;14.50;3.85;;;;;;;;;;5123046;27;20047;-67
2022/01/02 11:34:46;;;;;;;14.27;4.25;;;;;;;;;;5122199;27;20499;-67
2022/01/02 11:37:13;;;;;;;13.57;4.45;;;;;;;;;;5116615;27;20130;-68
2022/01/02 11:39:52;;;;;;;18.15;4.15;;;;;;;;;;5127790;27;20498;-68
2022/01/02 11:42:34;;;;;;;17.35;4.32;;;;;;;;;;5122090;27;20480;-67
2022/01/02 11:45:01;;;;;;;14.23;3.22;;;;;;;;;;5126728;27;20054;-67
2022/01/02 11:47:41;;;;;;;13.80;3.50;;;;;;;;;;5130821;27;20047;-68
2022/01/02 11:50:27;;;;;;;15.98;3.03;;;;;;;;;;5126027;27;20056;-67
2022/01/02 11:53:09;;;;;;;13.20;3.22;;;;;;;;;;5127929;27;20053;-69
2022/01/02 11:55:37;;;;;;;16.52;3.72;;;;;;;;;;5122950;27;20052;-68
2022/01/02 11:58:03;;;;;;;13.55;2.90;;;;;;;;;;5123024;27;20063;-68
2022/01/02 12:00:34;;;;;;;17.85;3.03;;;;;;;;;;5121649;27;20057;-68
2022/01/02 12:03:00;;;;;;;13.98;3.22;;;;;;;;;;5117330;27;20056;-68
2022/01/02 12:05:27;;;;;;;15.15;2.88;;;;;;;;;;5118768;27;22120;-67
2022/01/02 12:07:53;;;;;;;14.75;2.95;;;;;;;;;;5129619;27;20055;-68
2022/01/02 12:10:20;;;;;;;15.00;2.85;;;;;;;;;;5130039;27;20139;-67
2022/01/02 12:12:55;;;;;;;22.30;4.07;;;;;;;;;;5131648;27;20074;-67
2022/01/02 12:15:22;;;;;;;17.25;3.70;;;;;;;;;;5117222;27;20481;-67
2022/01/02 12:18:04;;;;;;;17.85;2.72;;;;;;;;;;5119466;27;20094;-67
2022/01/02 12:20:50;;;;;;;11.68;2.60;;;;;;;;;;5123653;27;20052;-67
2022/01/02 12:26:11;;;;;;;12.23;2.03;;;;;;;;;;5113733;27;20067;-69
2022/01/02 12:28:57;;;;;;;28.40;3.20;;;;;;;;;;5123945;27;20052;-70
2022/01/02 12:31:31;;;;;;;14.23;2.72;;;;;;;;;;5130277;27;20062;-69
2022/01/02 12:34:17;;;;;;;18.98;3.40;;;;;;;;;;5122147;27;20403;-69
2022/01/02 12:36:44;;;;;;;12.20;2.45;;;;;;;;;;5109259;28;20055;-70
2022/01/02 12:39:31;;;;;;;7.32;2.17;;;;;;;;;;5110398;28;20054;-70
2022/01/02 12:42:14;;;;;;;16.35;2.67;;;;;;;;;;5109419;28;20044;-69
2022/01/02 12:44:41;;;;;;;11.32;2.50;;;;;;;;;;5110200;28;20567;-69
2022/01/02 12:47:09;;;;;;;9.68;1.88;;;;;;;;;;5109445;28;20135;-69
2022/01/02 12:49:38;;;;;;;12.45;2.33;;;;;;;;;;5109409;28;20581;-69
2022/01/02 12:52:06;;;;;;;15.93;2.17;;;;;;;;;;5109908;27;20079;-69
2022/01/02 12:54:33;;;;;;;12.60;1.85;;;;;;;;;;5109216;28;20052;-69
2022/01/02 12:57:01;;;;;;;9.63;1.90;;;;;;;;;;5109553;28;20056;-69
2022/01/02 12:59:31;;;;;;;12.15;2.22;;;;;;;;;;5109415;28;20055;-69
2022/01/02 13:01:59;;;;;;;14.30;2.00;;;;;;;;;;5109798;28;20054;-69
2022/01/02 13:04:28;;;;;;;11.10;2.50;;;;;;;;;;5109961;28;20060;-69
2022/01/02 13:06:55;;;;;;;13.43;2.45;;;;;;;;;;5108554;27;20068;-69
2022/01/02 13:09:24;;;;;;;12.48;2.10;;;;;;;;;;5111905;27;20056;-70
2022/01/02 13:11:52;;;;;;;15.98;2.63;;;;;;;;;;5130319;27;20097;-69
2022/01/02 13:14:36;;;;;;;11.52;2.42;;;;;;;;;;5128724;27;20498;-69
2022/01/02 13:17:06;;;;;;;12.38;2.45;;;;;;;;;;5129541;27;20047;-68
2022/01/02 13:19:35;;;;;;;13.35;2.40;;;;;;;;;;5129614;27;20052;-70
2022/01/02 13:22:02;;;;;;;15.25;2.65;;;;;;;;;;5128607;27;20131;-69
2022/01/02 13:24:29;;;;;;;14.30;2.17;;;;;;;;;;5129218;27;20047;-69
2022/01/02 13:26:56;;;;;;;12.70;2.33;;;;;;;;;;5129137;27;20124;-69
2022/01/02 13:29:24;;;;;;;13.68;2.85;;;;;;;;;;5129836;27;20138;-69
2022/01/02 13:31:51;;;;;;;16.05;2.58;;;;;;;;;;5128970;27;20051;-69
2022/01/02 13:34:21;;;;;;;13.30;2.13;;;;;;;;;;5129200;27;20586;-69
2022/01/02 13:36:58;;;;;;;9.27;1.90;;;;;;;;;;5128882;27;20043;-69
2022/01/02 13:39:38;;;;;;;10.25;2.75;;;;;;;;;;5129231;27;20437;-69
2022/01/02 13:42:04;;;;;;;13.13;3.05;;;;;;;;;;5128601;27;20498;-70
2022/01/02 13:44:38;;;;;;;13.32;2.95;;;;;;;;;;5129643;27;20048;-70
2022/01/02 13:47:06;;;;;;;10.75;1.88;;;;;;;;;;5129213;27;20510;-69
2022/01/02 13:49:47;;;;;;;10.07;2.10;;;;;;;;;;5129079;27;20461;-69
2022/01/02 13:52:14;;;;;;;10.43;2.60;;;;;;;;;;5129159;27;20058;-70
2022/01/02 13:54:42;;;;;;;19.88;3.60;;;;;;;;;;5129530;27;20055;-69
2022/01/02 13:57:11;;;;;;;15.90;2.55;;;;;;;;;;5128530;27;20058;-69
2022/01/02 13:59:38;;;;;;;17.50;2.80;;;;;;;;;;5115596;27;20528;-69
2022/01/02 14:02:04;;;;;;;20.58;3.33;;;;;;;;;;5108223;28;20139;-69
2022/01/02 14:04:53;;;;;;;16.52;2.42;;;;;;;;;;5107663;28;20048;-69
2022/01/02 14:07:20;;;;;;;21.55;3.75;;;;;;;;;;5108525;28;20048;-70
2022/01/02 14:09:52;;;;;;;22.20;3.10;;;;;;;;;;5108343;28;20082;-69
2022/01/02 14:12:26;;;;;;;17.73;2.88;;;;;;;;;;5108163;28;20056;-68
2022/01/02 14:15:02;;;;;;;21.08;3.05;;;;;;;;;;5108376;28;20052;-69
2022/01/02 14:17:33;;;;;;;13.65;2.92;;;;;;;;;;5107604;28;20050;-69
2022/01/02 14:20:00;;;;;;;10.90;2.20;;;;;;;;;;5107366;28;20057;-70
2022/01/02 14:22:27;;;;;;;17.17;3.33;;;;;;;;;;5107396;28;20067;-69
2022/01/02 14:24:54;;;;;;;14.15;2.58;;;;;;;;;;5107415;28;20520;-69
2022/01/02 14:27:22;;;;;;;15.57;3.28;;;;;;;;;;5119912;27;20144;-69
2022/01/02 14:29:49;;;;;;;18.40;2.80;;;;;;;;;;5108688;27;20161;-69
2022/01/02 14:32:15;;;;;;;16.83;2.83;;;;;;;;;;5128892;27;20051;-69
2022/01/02 14:34:42;;;;;;;19.70;2.60;;;;;;;;;;5131677;27;20048;-69
2022/01/02 14:37:09;;;;;;;18.33;2.60;;;;;;;;;;5130989;27;20058;-68
2022/01/02 14:39:36;;;;;;;12.93;2.10;;;;;;;;;;5131598;27;20134;-69
2022/01/02 14:42:02;;;;;;;18.85;3.30;;;;;;;;;;5131431;27;20058;-69
2022/01/02 14:44:35;;;;;;;15.70;2.30;;;;;;;;;;5131176;27;20056;-68
2022/01/02 14:47:17;;;;;;;16.25;2.95;;;;;;;;;;5131576;27;20068;-69